createdAt,value
2023-04-01T06:12:55.839Z,4.37
2023-04-01T06:15:35.233Z,5.20
2023-04-01T06:18:54.492Z,4.30
2023-04-01T06:22:07.543Z,3.90
2023-04-01T06:25:06.817Z,4.00
2023-04-01T06:27:51.101Z,4.10
2023-04-01T06:30:36.034Z,4.27
2023-04-01T06:33:29.964Z,5.13
2023-04-01T06:39:19.323Z,4.53
2023-04-01T06:42:06.534Z,4.80
2023-04-01T06:44:42.184Z,4.33
2023-04-01T06:47:24.965Z,4.57
2023-04-01T06:49:59.648Z,4.57
2023-04-01T06:52:35.765Z,4.17
2023-04-01T06:55:21.190Z,3.90
2023-04-01T06:57:55.989Z,3.50
2023-04-01T07:00:31.038Z,3.53
2023-04-01T07:03:09.071Z,3.53
2023-04-01T07:05:38.446Z,2.83
2023-04-01T07:08:11.897Z,3.00
2023-04-01T07:10:47.782Z,3.00
2023-04-01T07:13:23.760Z,3.10
2023-04-01T07:16:01.337Z,3.27
2023-04-01T07:18:38.026Z,3.30
2023-04-01T07:21:12.363Z,3.10
2023-04-01T07:23:44.717Z,3.33
2023-04-01T07:26:19.973Z,2.87
2023-04-01T07:28:50.370Z,3.37
2023-04-01T07:31:27.082Z,2.73
2023-04-01T07:34:03.602Z,3.40
2023-04-01T07:36:41.178Z,3.37
2023-04-01T07:39:25.598Z,3.10
2023-04-01T07:42:00.937Z,3.23
2023-04-01T07:44:46.272Z,2.80
2023-04-01T07:47:29.916Z,2.30
2023-04-01T07:50:11.373Z,2.30
2023-04-01T07:52:47.447Z,2.80
2023-04-01T07:55:22.897Z,2.60
2023-04-01T07:57:57.794Z,2.70
2023-04-01T08:00:32.235Z,2.90
2023-04-01T08:03:16.557Z,3.10
2023-04-01T08:05:55.720Z,3.10
2023-04-01T08:08:35.311Z,2.80
2023-04-01T08:11:15.207Z,2.57
2023-04-01T08:13:53.062Z,3.07
2023-04-01T08:16:34.236Z,3.13
2023-04-01T08:19:07.812Z,2.97
2023-04-01T08:21:44.154Z,3.23
2023-04-01T08:24:22.896Z,3.33
2023-04-01T08:26:56.229Z,3.33
2023-04-01T08:29:28.717Z,3.33
2023-04-01T08:32:02.477Z,2.87
2023-04-01T08:34:36.210Z,3.00
2023-04-01T08:37:09.392Z,3.60
2023-04-01T08:39:40.519Z,3.13
2023-04-01T08:42:34.201Z,3.90
2023-04-01T08:45:23.790Z,3.10
2023-04-01T08:48:12.009Z,2.70
2023-04-01T08:51:17.306Z,3.03
2023-04-01T08:54:00.108Z,2.97
2023-04-01T08:56:33.748Z,2.43
2023-04-01T08:59:30.051Z,2.80
